Time;durP1;ratioP1;P1;durP2;ratioP2;P2;SDS_P1;SDS_P2;PMS_P1;PMS_P2;Temp;Humidity;BMP_temperature;BMP_pressure;BME280_temperature;BME280_humidity;BME280_pressure;Samples;Min_cycle;Max_cycle;Signal;HPM_P1;HPM_P2
2022/11/25 00:02:15;;;;;;;103.30;36.38;;;4.70;99.90;;;;;;5033458;28;20033;-68
2022/11/25 00:04:41;;;;;;;86.93;35.97;;;4.70;99.90;;;;;;5033520;28;20033;-68
2022/11/25 00:07:06;;;;;;;108.90;39.20;;;4.70;99.90;;;;;;5033435;28;20048;-68
2022/11/25 00:09:32;;;;;;;127.95;40.88;;;4.70;99.90;;;;;;5033496;28;20030;-68
2022/11/25 00:11:57;;;;;;;95.68;36.10;;;4.70;99.90;;;;;;5033512;28;20038;-68
2022/11/25 00:14:23;;;;;;;111.63;38.35;;;4.60;99.90;;;;;;5032833;28;20059;-68
2022/11/25 00:16:48;;;;;;;86.97;34.95;;;4.60;99.90;;;;;;5033432;28;20370;-68
2022/11/25 00:19:14;;;;;;;95.95;37.15;;;4.60;99.90;;;;;;5033349;28;20037;-68
2022/11/25 00:21:39;;;;;;;110.00;40.10;;;4.60;99.90;;;;;;5033179;28;20037;-68
2022/11/25 00:24:06;;;;;;;97.28;36.88;;;4.70;99.90;;;;;;5033221;28;20031;-68
2022/11/25 00:26:33;;;;;;;114.07;39.15;;;4.70;99.90;;;;;;5033061;28;20040;-67
2022/11/25 00:29:01;;;;;;;119.40;40.88;;;4.80;99.90;;;;;;5033213;28;20044;-68
2022/11/25 00:31:29;;;;;;;96.25;36.80;;;4.80;99.90;;;;;;5026136;28;20512;-68
2022/11/25 00:33:55;;;;;;;108.95;37.00;;;4.70;99.90;;;;;;5029792;28;20033;-68
2022/11/25 00:36:26;;;;;;;113.07;42.22;;;4.80;99.90;;;;;;5016391;28;20029;-68
2022/11/25 00:38:54;;;;;;;120.03;39.67;;;4.90;99.90;;;;;;5016950;28;20037;-68
2022/11/25 00:46:48;;;;;;;96.78;36.35;;;4.80;99.90;;;;;;5017689;28;20085;-68
2022/11/25 00:49:14;;;;;;;109.32;37.90;;;4.70;99.90;;;;;;5017405;28;20061;-68
2022/11/25 00:51:40;;;;;;;132.05;38.58;;;4.70;99.90;;;;;;5016842;28;20144;-68
2022/11/25 00:54:05;;;;;;;121.38;37.05;;;4.70;99.90;;;;;;5017152;28;20026;-68
2022/11/25 00:56:31;;;;;;;122.00;37.80;;;4.70;99.90;;;;;;5017162;28;20030;-68
2022/11/25 00:58:57;;;;;;;115.97;37.20;;;4.70;99.90;;;;;;5016835;28;20026;-68
2022/11/25 01:01:23;;;;;;;103.38;37.45;;;4.60;99.90;;;;;;5019950;28;20504;-68
2022/11/25 01:03:50;;;;;;;104.40;36.95;;;4.50;99.90;;;;;;5036721;28;20029;-67
2022/11/25 01:06:16;;;;;;;114.68;34.60;;;4.50;99.90;;;;;;5030379;28;20363;-68
2022/11/25 01:08:42;;;;;;;93.05;31.88;;;4.40;99.90;;;;;;5016662;28;20037;-68
2022/11/25 01:11:11;;;;;;;89.00;33.30;;;4.40;99.90;;;;;;5017221;28;20030;-68
2022/11/25 01:13:36;;;;;;;94.18;34.53;;;4.30;99.90;;;;;;5019030;28;20037;-68
2022/11/25 01:16:04;;;;;;;109.13;34.15;;;4.30;99.90;;;;;;5027490;28;20091;-68
2022/11/25 01:18:30;;;;;;;111.03;35.00;;;4.20;99.90;;;;;;5036023;28;20452;-68
2022/11/25 01:21:08;;;;;;;116.30;37.00;;;4.20;99.90;;;;;;5036309;28;20540;-68
2022/11/25 01:23:34;;;;;;;95.72;32.38;;;4.20;99.90;;;;;;5036549;28;20017;-68
2022/11/25 01:26:17;;;;;;;95.55;35.05;;;4.20;99.90;;;;;;5036414;28;20079;-68
2022/11/25 01:28:43;;;;;;;;;;;4.20;99.90;;;;;;5036835;28;20030;-68
2022/11/25 01:31:13;;;;;;;117.93;36.60;;;4.30;99.90;;;;;;5036312;28;19912;-68
2022/11/25 01:33:39;;;;;;;117.68;37.47;;;4.30;99.90;;;;;;5035713;28;20079;-68
2022/11/25 01:36:08;;;;;;;111.82;39.95;;;4.40;99.90;;;;;;5036499;28;20396;-68
2022/11/25 01:38:34;;;;;;;126.43;39.15;;;4.50;99.90;;;;;;5036340;28;20025;-68
2022/11/25 01:41:01;;;;;;;141.35;42.15;;;4.60;99.90;;;;;;5036076;28;20155;-68
2022/11/25 01:43:28;;;;;;;139.10;37.75;;;4.70;99.90;;;;;;5035538;28;20029;-68
2022/11/25 01:46:26;;;;;;;129.20;41.95;;;4.70;99.90;;;;;;5036617;28;20022;-68
2022/11/25 01:49:01;;;;;;;114.70;41.40;;;4.70;99.90;;;;;;5035805;28;20025;-68
2022/11/25 01:51:48;;;;;;;129.10;40.80;;;4.70;99.90;;;;;;5035986;28;20037;-68
2022/11/25 01:54:19;;;;;;;127.47;40.97;;;4.70;99.90;;;;;;5035871;28;20036;-68
2022/11/25 01:56:59;;;;;;;130.75;40.05;;;4.70;99.90;;;;;;5035694;28;20025;-68
2022/11/25 01:59:25;;;;;;;124.03;39.97;;;4.70;99.90;;;;;;5036057;28;20505;-68
2022/11/25 02:01:52;;;;;;;137.73;41.10;;;4.70;99.90;;;;;;5035471;28;20251;-68
2022/11/25 02:04:20;;;;;;;133.23;41.53;;;4.60;99.90;;;;;;5035720;28;20037;-67
2022/11/25 02:06:52;;;;;;;131.70;39.33;;;4.60;99.90;;;;;;5035481;28;20025;-68
2022/11/25 02:09:18;;;;;;;123.35;38.63;;;4.50;99.90;;;;;;5034738;28;20044;-68
2022/11/25 02:11:45;;;;;;;111.68;36.22;;;4.50;99.90;;;;;;5035487;28;20022;-68
2022/11/25 02:14:13;;;;;;;138.75;39.90;;;4.50;99.90;;;;;;5030128;28;20045;-68
2022/11/25 02:16:39;;;;;;;115.90;40.33;;;4.50;99.90;;;;;;5032227;28;20033;-68
2022/11/25 02:19:10;;;;;;;130.70;41.00;;;4.50;99.90;;;;;;5035351;28;20091;-68
2022/11/25 02:21:42;;;;;;;119.90;38.28;;;4.60;99.90;;;;;;5030938;28;20025;-68
2022/11/25 02:24:17;;;;;;;111.88;36.70;;;4.60;99.90;;;;;;5035024;28;20080;-68
2022/11/25 02:26:42;;;;;;;114.80;39.95;;;4.50;99.90;;;;;;5034754;28;20037;-68
2022/11/25 02:29:08;;;;;;;126.50;38.78;;;4.60;99.90;;;;;;5035323;28;20022;-68
2022/11/25 02:31:34;;;;;;;119.35;39.63;;;4.60;99.90;;;;;;5035304;28;20434;-68
2022/11/25 02:33:59;;;;;;;136.70;40.40;;;4.60;99.90;;;;;;5034326;28;20029;-68
2022/11/25 02:36:25;;;;;;;144.80;40.28;;;4.50;99.90;;;;;;5035242;28;20026;-68
2022/11/25 02:39:00;;;;;;;120.65;40.22;;;4.50;99.90;;;;;;5035321;28;20036;-67
2022/11/25 02:41:42;;;;;;;123.00;40.47;;;4.50;99.90;;;;;;5035341;28;20041;-68
2022/11/25 02:44:08;;;;;;;158.93;42.70;;;4.50;99.90;;;;;;5035046;28;20487;-68
2022/11/25 02:46:34;;;;;;;151.52;41.35;;;4.40;99.90;;;;;;5032724;28;20116;-68
2022/11/25 02:49:00;;;;;;;117.18;40.53;;;4.40;99.90;;;;;;5034590;28;20437;-68
2022/11/25 02:51:28;;;;;;;114.15;38.85;;;4.30;99.90;;;;;;5029504;28;20500;-68
2022/11/25 02:53:55;;;;;;;120.15;42.08;;;4.30;99.90;;;;;;5034808;28;20029;-68
2022/11/25 02:56:23;;;;;;;120.28;41.17;;;4.20;99.90;;;;;;5034678;28;20512;-68
2022/11/25 02:58:49;;;;;;;128.82;40.45;;;4.20;99.90;;;;;;5033616;28;20040;-68
2022/11/25 03:01:15;;;;;;;119.65;40.30;;;4.20;99.90;;;;;;5034863;28;20030;-67
2022/11/25 03:03:40;;;;;;;122.25;40.63;;;4.20;99.90;;;;;;5032438;28;20113;-68
2022/11/25 03:06:06;;;;;;;145.27;44.75;;;4.30;99.90;;;;;;5034129;28;20479;-68
2022/11/25 03:08:32;;;;;;;122.50;40.20;;;4.20;99.90;;;;;;5025770;28;20062;-67
2022/11/25 03:10:57;;;;;;;116.88;43.47;;;4.20;99.90;;;;;;5034430;28;20389;-68
2022/11/25 03:13:23;;;;;;;138.70;43.13;;;4.20;99.90;;;;;;5034319;28;20044;-68
2022/11/25 03:15:48;;;;;;;133.77;42.55;;;4.20;99.90;;;;;;5033773;28;20057;-68
2022/11/25 03:18:14;;;;;;;122.15;41.72;;;4.20;99.90;;;;;;5034276;28;20075;-68
2022/11/25 03:20:39;;;;;;;139.68;44.13;;;4.20;99.90;;;;;;5034211;28;20052;-68
2022/11/25 03:23:05;;;;;;;133.70;42.03;;;4.10;99.90;;;;;;5034364;28;20392;-68
2022/11/25 03:25:32;;;;;;;147.43;46.20;;;4.10;99.90;;;;;;5032022;28;20607;-68
2022/11/25 03:27:57;;;;;;;133.32;43.92;;;4.20;99.90;;;;;;5033818;28;20017;-67
2022/11/25 03:30:25;;;;;;;128.82;42.22;;;4.10;99.90;;;;;;5029561;28;20109;-68
2022/11/25 03:32:51;;;;;;;126.82;44.08;;;4.10;99.90;;;;;;5014554;28;20028;-67
2022/11/25 03:35:16;;;;;;;133.60;47.95;;;4.10;99.90;;;;;;4996980;28;20018;-68
2022/11/25 03:37:43;;;;;;;145.70;49.35;;;4.10;99.90;;;;;;5032592;28;20040;-68
2022/11/25 03:40:10;;;;;;;171.70;50.20;;;4.10;99.90;;;;;;5033774;28;20021;-68
2022/11/25 03:42:36;;;;;;;149.20;49.25;;;4.10;99.90;;;;;;5033074;28;20087;-68
2022/11/25 03:45:01;;;;;;;147.70;50.05;;;4.10;99.90;;;;;;5033894;28;20037;-68
2022/11/25 03:47:27;;;;;;;140.50;49.45;;;4.10;99.90;;;;;;5033754;28;20047;-68
2022/11/25 03:49:53;;;;;;;126.18;47.13;;;4.00;99.90;;;;;;5033893;28;20018;-68
2022/11/25 03:52:18;;;;;;;144.63;50.20;;;4.00;99.90;;;;;;5033835;28;20439;-68
2022/11/25 03:54:44;;;;;;;143.30;49.53;;;4.00;99.90;;;;;;5033037;28;20029;-67
2022/11/25 03:57:10;;;;;;;137.50;46.65;;;4.00;99.90;;;;;;5033921;28;20032;-68
2022/11/25 03:59:35;;;;;;;144.43;49.97;;;4.00;99.90;;;;;;5032932;28;20040;-67
2022/11/25 04:02:01;;;;;;;144.18;49.35;;;4.00;99.90;;;;;;5033180;28;20029;-67
2022/11/25 04:04:27;;;;;;;151.20;48.42;;;3.90;99.90;;;;;;5021320;28;20022;-68
2022/11/25 04:06:52;;;;;;;133.50;46.83;;;3.80;99.90;;;;;;5021420;28;20469;-68
2022/11/25 04:09:18;;;;;;;140.05;46.97;;;3.80;99.90;;;;;;5034037;28;20028;-68
2022/11/25 04:14:29;;;;;;;138.70;47.78;;;3.80;99.90;;;;;;5033183;28;20043;-68
2022/11/25 04:16:54;;;;;;;143.45;46.72;;;3.80;99.90;;;;;;5033026;28;20034;-68
2022/11/25 04:19:20;;;;;;;109.50;45.25;;;3.80;99.90;;;;;;5031094;28;20447;-68
2022/11/25 04:21:45;;;;;;;122.47;44.42;;;3.70;99.90;;;;;;5033335;28;20044;-68
2022/11/25 04:24:11;;;;;;;128.52;45.40;;;3.70;99.90;;;;;;5033265;28;20029;-68
2022/11/25 04:26:36;;;;;;;116.80;43.75;;;3.70;99.90;;;;;;5031582;28;20532;-68
2022/11/25 04:29:02;;;;;;;110.38;43.45;;;3.70;99.90;;;;;;5033302;28;20112;-68
2022/11/25 04:31:28;;;;;;;127.75;42.90;;;3.70;99.90;;;;;;5032649;28;20140;-68
2022/11/25 04:33:53;;;;;;;103.80;39.88;;;3.70;99.90;;;;;;5033201;28;20112;-68
2022/11/25 04:36:19;;;;;;;121.95;43.13;;;3.70;99.90;;;;;;5029738;28;20022;-68
2022/11/25 04:38:44;;;;;;;137.82;42.63;;;3.70;99.90;;;;;;5013507;28;20036;-68
2022/11/25 04:41:10;;;;;;;121.65;41.75;;;3.60;99.90;;;;;;5014462;28;20062;-67
2022/11/25 04:43:35;;;;;;;120.72;42.20;;;3.60;99.90;;;;;;5033093;28;20476;-68
2022/11/25 04:46:02;;;;;;;141.30;44.55;;;3.60;99.90;;;;;;5015545;28;20022;-68
2022/11/25 04:48:27;;;;;;;119.95;42.72;;;3.60;99.90;;;;;;5032712;28;20469;-68
2022/11/25 04:50:53;;;;;;;125.70;43.72;;;3.70;99.90;;;;;;5033361;28;20033;-68
2022/11/25 04:53:19;;;;;;;135.82;45.53;;;3.70;99.90;;;;;;5032984;28;20531;-67
2022/11/25 04:55:45;;;;;;;114.82;42.72;;;3.90;99.90;;;;;;5033033;28;20111;-68
2022/11/25 04:58:10;;;;;;;123.55;42.50;;;3.90;99.90;;;;;;5014661;28;20026;-67
2022/11/25 05:00:36;;;;;;;142.27;43.63;;;4.00;99.90;;;;;;5033147;28;20041;-68
2022/11/25 05:03:02;;;;;;;123.65;42.75;;;4.00;99.90;;;;;;5032971;28;20021;-68
2022/11/25 05:05:28;;;;;;;143.05;46.30;;;4.00;99.90;;;;;;5032610;28;20439;-68
2022/11/25 05:07:53;;;;;;;140.07;46.53;;;4.00;99.90;;;;;;5032629;28;20102;-68
2022/11/25 05:10:19;;;;;;;139.82;45.15;;;4.10;99.90;;;;;;5030631;28;20021;-67
2022/11/25 05:12:44;;;;;;;147.55;44.20;;;4.10;99.90;;;;;;5032661;28;20057;-67
2022/11/25 05:15:10;;;;;;;147.07;44.28;;;4.10;99.90;;;;;;5051398;23;20099;-70
2022/11/25 05:17:37;;;;;;;125.32;42.28;;;4.10;99.90;;;;;;5033617;28;20056;-70
2022/11/25 05:20:03;;;;;;;143.88;42.05;;;4.20;99.90;;;;;;5032812;28;20477;-70
2022/11/25 05:22:30;;;;;;;118.93;40.67;;;4.20;99.90;;;;;;5034484;28;20033;-70
2022/11/25 05:24:57;;;;;;;130.93;39.88;;;4.20;99.90;;;;;;5036906;28;20100;-70
2022/11/25 05:27:23;;;;;;;117.75;39.33;;;4.30;99.90;;;;;;5023121;28;20026;-69
2022/11/25 05:29:49;;;;;;;134.20;40.50;;;4.30;99.90;;;;;;5017398;28;20057;-70
2022/11/25 05:32:15;;;;;;;115.10;37.10;;;4.30;99.90;;;;;;5016584;28;20036;-69
2022/11/25 05:34:41;;;;;;;99.20;36.63;;;4.40;99.90;;;;;;5017092;28;20541;-70
2022/11/25 05:37:09;;;;;;;116.05;36.17;;;4.40;99.90;;;;;;5016862;28;20477;-70
2022/11/25 05:39:34;;;;;;;110.90;35.05;;;4.40;99.90;;;;;;5019567;28;20092;-71
2022/11/25 05:42:00;;;;;;;102.00;34.70;;;4.40;99.90;;;;;;5036635;28;20029;-71
2022/11/25 05:44:26;;;;;;;106.25;34.95;;;4.50;99.90;;;;;;5036960;28;20036;-71
2022/11/25 05:46:52;;;;;;;101.82;34.17;;;4.50;99.90;;;;;;5019057;28;20057;-70
2022/11/25 05:49:18;;;;;;;109.85;36.13;;;4.40;99.90;;;;;;5016899;28;20022;-71
2022/11/25 05:51:45;;;;;;;88.68;31.25;;;4.50;99.90;;;;;;5018598;28;20044;-71
2022/11/25 05:54:10;;;;;;;93.80;31.77;;;4.50;99.90;;;;;;5018586;28;20033;-71
2022/11/25 05:56:36;;;;;;;108.32;32.22;;;4.50;99.90;;;;;;5018036;28;20021;-71
2022/11/25 05:59:02;;;;;;;94.28;32.88;;;4.50;99.90;;;;;;5017131;28;20034;-71
2022/11/25 06:01:28;;;;;;;92.75;32.17;;;4.60;99.90;;;;;;5016291;28;20076;-71
2022/11/25 06:03:54;;;;;;;94.90;32.20;;;4.60;99.90;;;;;;5015807;28;20038;-70
2022/11/25 06:06:20;;;;;;;103.68;33.80;;;4.60;99.90;;;;;;5016658;28;20029;-71
2022/11/25 06:08:45;;;;;;;94.95;32.25;;;4.60;99.90;;;;;;5016311;28;20029;-71
2022/11/25 06:11:14;;;;;;;92.22;30.88;;;4.60;99.90;;;;;;5016783;28;20109;-70
2022/11/25 06:13:41;;;;;;;89.20;30.02;;;4.60;99.90;;;;;;5016100;28;20489;-71
2022/11/25 06:16:16;;;;;;;84.93;28.27;;;4.60;99.90;;;;;;5016471;28;20030;-71
2022/11/25 06:18:41;;;;;;;90.90;28.83;;;4.70;99.90;;;;;;5015630;28;20540;-71
2022/11/25 06:21:08;;;;;;;103.75;30.42;;;4.70;99.90;;;;;;5014693;28;20073;-71
2022/11/25 06:23:35;;;;;;;86.57;27.20;;;4.60;99.90;;;;;;5016371;28;20026;-71
2022/11/25 06:26:08;;;;;;;89.00;27.00;;;4.70;99.90;;;;;;5016392;28;20033;-71
2022/11/25 06:28:34;;;;;;;95.63;27.92;;;4.70;99.90;;;;;;5015633;28;20101;-71
2022/11/25 06:31:29;;;;;;;79.63;27.02;;;4.80;99.90;;;;;;5016097;28;20068;-71
2022/11/25 06:33:54;;;;;;;85.57;28.98;;;4.80;99.90;;;;;;5006358;28;20129;-71
2022/11/25 06:36:21;;;;;;;70.53;24.27;;;4.80;99.90;;;;;;5016375;28;20053;-71
2022/11/25 06:38:52;;;;;;;75.15;25.48;;;4.80;99.90;;;;;;5015744;28;20524;-71
2022/11/25 06:41:18;;;;;;;82.72;25.48;;;4.80;99.90;;;;;;5015317;28;20026;-72
2022/11/25 06:43:44;;;;;;;74.28;24.10;;;4.90;99.90;;;;;;5015717;28;20018;-71
2022/11/25 06:46:12;;;;;;;71.10;26.60;;;4.90;99.90;;;;;;5016255;28;20025;-71
2022/11/25 06:48:38;;;;;;;62.17;24.90;;;4.90;99.90;;;;;;5014278;28;20022;-71
2022/11/25 06:51:07;;;;;;;70.82;23.85;;;4.90;99.90;;;;;;5030365;28;20425;-71
2022/11/25 06:53:33;;;;;;;62.58;24.85;;;4.90;99.90;;;;;;5015706;28;20030;-71
2022/11/25 06:56:11;;;;;;;77.93;23.30;;;4.90;99.90;;;;;;5015959;28;20378;-71
2022/11/25 06:58:37;;;;;;;72.50;23.48;;;4.90;99.90;;;;;;5015606;28;20104;-71
2022/11/25 07:01:04;;;;;;;64.35;23.13;;;4.90;99.90;;;;;;5025004;28;20384;-71
2022/11/25 07:03:30;;;;;;;69.68;23.60;;;5.00;99.90;;;;;;5034534;28;20025;-71
2022/11/25 07:05:57;;;;;;;63.08;22.48;;;5.00;99.90;;;;;;5031121;28;20076;-71
2022/11/25 07:08:23;;;;;;;63.95;23.42;;;5.00;99.90;;;;;;5015187;28;20030;-72
2022/11/25 07:10:49;;;;;;;79.95;25.33;;;5.10;99.90;;;;;;5015670;28;20113;-69
2022/11/25 07:13:15;;;;;;;60.63;23.45;;;5.10;99.90;;;;;;5033377;28;20090;-71
2022/11/25 07:15:40;;;;;;;65.32;25.30;;;5.10;99.90;;;;;;5033298;28;20033;-71
2022/11/25 07:18:06;;;;;;;62.17;23.45;;;5.10;99.90;;;;;;5034673;28;20029;-71
2022/11/25 07:20:34;;;;;;;72.38;22.77;;;5.10;99.90;;;;;;5034510;28;20113;-71
2022/11/25 07:23:00;;;;;;;66.75;23.15;;;5.10;99.90;;;;;;5029400;28;20022;-71
2022/11/25 07:25:25;;;;;;;59.10;24.48;;;5.20;99.90;;;;;;5015314;28;20026;-71
2022/11/25 07:27:51;;;;;;;63.55;23.60;;;5.20;99.90;;;;;;5014729;28;20371;-71
2022/11/25 07:30:16;;;;;;;65.55;22.13;;;5.20;99.90;;;;;;5014989;28;20500;-71
2022/11/25 07:32:42;;;;;;;66.28;22.33;;;5.10;99.90;;;;;;5014572;28;20030;-71
2022/11/25 07:35:08;;;;;;;62.75;22.60;;;5.20;99.90;;;;;;5014692;28;20041;-71
2022/11/25 07:37:33;;;;;;;60.22;23.88;;;5.20;99.90;;;;;;5014685;28;20046;-71
2022/11/25 07:39:59;;;;;;;68.88;22.85;;;5.20;99.90;;;;;;5014849;28;20045;-71
2022/11/25 07:42:24;;;;;;;69.40;23.73;;;5.20;99.90;;;;;;5015159;28;20034;-71
2022/11/25 07:44:50;;;;;;;53.88;21.52;;;5.20;99.90;;;;;;5029846;28;20018;-71
2022/11/25 07:47:15;;;;;;;65.05;20.38;;;5.20;99.90;;;;;;5034009;28;20079;-71
2022/11/25 07:49:41;;;;;;;54.10;21.60;;;5.30;99.90;;;;;;5032828;28;20474;-71
2022/11/25 07:52:08;;;;;;;62.65;23.70;;;5.30;99.90;;;;;;5031287;28;20109;-72
2022/11/25 07:54:33;;;;;;;51.75;21.33;;;5.30;99.90;;;;;;5034333;28;20504;-72
2022/11/25 07:56:59;;;;;;;56.90;22.73;;;5.30;99.90;;;;;;5032660;28;20033;-72
2022/11/25 07:59:25;;;;;;;52.80;20.27;;;5.30;99.90;;;;;;5034315;28;20025;-72
2022/11/25 08:01:52;;;;;;;59.60;22.60;;;5.30;99.90;;;;;;5025541;28;20122;-72
2022/11/25 08:04:18;;;;;;;51.60;20.98;;;5.40;99.90;;;;;;5014327;28;20390;-72
2022/11/25 08:06:45;;;;;;;62.47;22.75;;;5.40;99.90;;;;;;5019742;28;20025;-72
2022/11/25 08:09:13;;;;;;;55.28;21.10;;;5.40;99.90;;;;;;5032167;28;20021;-72
2022/11/25 08:11:40;;;;;;;45.88;21.42;;;5.40;99.90;;;;;;5034021;28;20043;-71
2022/11/25 08:14:05;;;;;;;55.35;20.95;;;5.40;99.90;;;;;;5032964;28;20045;-71
2022/11/25 08:16:31;;;;;;;69.53;22.33;;;5.40;99.90;;;;;;5034246;28;20028;-71
2022/11/25 08:19:02;;;;;;;48.83;19.65;;;5.50;99.90;;;;;;5016968;28;20030;-71
2022/11/25 08:21:28;;;;;;;50.15;20.95;;;5.50;99.90;;;;;;5014420;28;20358;-71
2022/11/25 08:23:54;;;;;;;43.70;19.40;;;5.50;99.90;;;;;;5014356;28;20026;-71
2022/11/25 08:26:25;;;;;;;46.92;19.92;;;5.50;99.90;;;;;;5014040;28;20053;-71
2022/11/25 08:28:52;;;;;;;51.78;18.33;;;5.50;99.90;;;;;;5013813;28;20033;-71
2022/11/25 08:31:24;;;;;;;60.30;21.42;;;5.50;99.90;;;;;;5014505;28;20026;-71
2022/11/25 08:33:50;;;;;;;52.78;17.02;;;5.50;99.90;;;;;;5014074;28;20026;-71
2022/11/25 08:36:16;;;;;;;50.50;19.65;;;5.50;99.90;;;;;;5014189;28;20108;-71
2022/11/25 08:38:42;;;;;;;52.55;19.48;;;5.60;99.90;;;;;;5013555;28;20022;-71
2022/11/25 08:41:13;;;;;;;52.05;19.63;;;5.60;99.90;;;;;;5012610;28;20040;-70
2022/11/25 08:43:40;;;;;;;54.55;19.60;;;5.50;99.90;;;;;;5014079;28;20026;-71
2022/11/25 08:46:23;;;;;;;43.97;19.20;;;5.60;99.90;;;;;;5031850;28;20022;-71
2022/11/25 08:48:49;;;;;;;55.92;19.30;;;5.60;99.90;;;;;;5032641;28;20071;-71
2022/11/25 08:51:19;;;;;;;47.10;18.67;;;5.60;99.90;;;;;;5017397;28;20033;-71
2022/11/25 08:53:45;;;;;;;37.08;17.02;;;5.60;99.90;;;;;;5014133;28;20551;-70
2022/11/25 08:56:11;;;;;;;42.50;17.50;;;5.60;99.90;;;;;;5033655;28;20030;-71
2022/11/25 08:58:37;;;;;;;52.63;17.40;;;5.60;99.90;;;;;;5035010;28;20033;-71
2022/11/25 09:01:05;;;;;;;53.53;18.48;;;5.60;99.90;;;;;;5036878;28;20025;-71
2022/11/25 09:03:39;;;;;;;35.63;16.80;;;5.60;99.90;;;;;;5035613;28;20025;-70
2022/11/25 09:06:06;;;;;;;40.13;17.00;;;5.70;99.90;;;;;;5033685;28;20052;-71
2022/11/25 09:08:31;;;;;;;43.28;16.70;;;5.70;99.90;;;;;;5037274;28;20025;-69
2022/11/25 09:10:58;;;;;;;40.75;16.25;;;5.70;99.90;;;;;;5016883;28;20040;-71
2022/11/25 09:13:24;;;;;;;47.10;17.92;;;5.70;99.90;;;;;;5017503;28;20041;-71
2022/11/25 09:15:50;;;;;;;44.35;18.45;;;5.80;99.90;;;;;;5032818;28;20040;-71
2022/11/25 09:18:18;;;;;;;50.47;15.95;;;5.80;99.90;;;;;;5036902;28;20108;-71
2022/11/25 09:20:44;;;;;;;49.60;17.05;;;5.80;99.90;;;;;;5025735;28;20026;-71
2022/11/25 09:23:09;;;;;;;40.95;15.80;;;5.80;99.90;;;;;;5015679;28;20032;-71
2022/11/25 09:25:35;;;;;;;39.50;14.82;;;5.80;99.90;;;;;;5023961;28;20033;-71
2022/11/25 09:28:01;;;;;;;46.03;15.95;;;5.80;99.90;;;;;;5036927;28;20053;-71
2022/11/25 09:30:27;;;;;;;51.88;17.25;;;5.80;99.90;;;;;;5033266;28;20075;-70
2022/11/25 09:32:54;;;;;;;36.53;16.40;;;5.80;99.90;;;;;;5016196;28;20026;-70
2022/11/25 09:35:21;;;;;;;36.42;17.20;;;5.80;99.90;;;;;;5016827;28;20041;-70
2022/11/25 09:37:47;;;;;;;58.50;17.60;;;5.80;99.90;;;;;;5029551;28;20416;-71
2022/11/25 09:40:38;;;;;;;50.97;18.30;;;5.80;99.90;;;;;;5035955;28;20024;-71
2022/11/25 09:46:41;;;;;;;34.72;15.85;;;5.80;99.90;;;;;;5037019;28;20060;-71
2022/11/25 09:49:49;;;;;;;41.65;15.20;;;5.90;99.90;;;;;;5019412;28;20041;-71
2022/11/25 09:52:39;;;;;;;40.95;16.23;;;5.90;99.90;;;;;;5008454;28;20033;-71
2022/11/25 09:55:14;;;;;;;38.38;16.00;;;5.90;99.90;;;;;;5016768;28;20084;-71
2022/11/25 09:57:56;;;;;;;43.50;16.33;;;5.80;99.90;;;;;;5016311;28;20026;-71
2022/11/25 10:00:22;;;;;;;44.08;16.70;;;5.90;99.90;;;;;;5016587;28;20466;-71
2022/11/25 10:03:05;;;;;;;52.15;16.90;;;5.90;99.90;;;;;;5016371;28;20053;-71
2022/11/25 10:05:40;;;;;;;44.15;17.27;;;6.00;99.90;;;;;;5017140;28;20087;-71
2022/11/25 10:08:16;;;;;;;37.90;16.02;;;6.00;99.90;;;;;;5016942;28;20541;-71
2022/11/25 10:10:48;;;;;;;41.10;15.32;;;6.00;99.90;;;;;;4997281;28;20026;-71
2022/11/25 10:13:52;;;;;;;57.92;17.58;;;6.00;99.90;;;;;;4996857;28;20026;-71
2022/11/25 10:16:47;;;;;;;53.63;16.87;;;6.00;99.90;;;;;;4956665;29;20027;-71
2022/11/25 10:19:16;;;;;;;40.97;15.32;;;6.10;99.90;;;;;;4996874;28;20034;-71
2022/11/25 10:21:41;;;;;;;41.03;16.20;;;6.10;99.90;;;;;;5031208;28;20037;-71
2022/11/25 10:24:14;;;;;;;38.17;15.82;;;6.20;99.90;;;;;;5015092;28;20072;-70
2022/11/25 10:26:42;;;;;;;50.58;18.05;;;6.20;99.90;;;;;;5016587;28;20454;-70
2022/11/25 10:29:25;;;;;;;49.60;15.77;;;6.20;99.90;;;;;;5016959;28;20033;-71
2022/11/25 10:32:21;;;;;;;36.40;16.87;;;6.20;99.90;;;;;;5015628;28;20026;-70
2022/11/25 10:34:55;;;;;;;40.78;15.25;;;6.20;99.90;;;;;;5012626;28;20049;-70
2022/11/25 10:37:35;;;;;;;44.67;16.85;;;6.20;99.90;;;;;;5016219;28;20393;-70
2022/11/25 10:40:01;;;;;;;48.00;17.67;;;6.30;99.90;;;;;;5015593;28;20498;-70
2022/11/25 10:42:27;;;;;;;47.00;17.27;;;6.20;99.90;;;;;;5015683;28;20030;-71
2022/11/25 10:44:56;;;;;;;34.13;15.65;;;6.20;99.90;;;;;;5014975;28;20021;-70
2022/11/25 10:47:36;;;;;;;41.10;15.68;;;6.20;99.90;;;;;;5015476;28;20024;-71
2022/11/25 10:50:13;;;;;;;35.25;16.63;;;6.20;99.90;;;;;;5015792;28;20049;-71
2022/11/25 10:53:03;;;;;;;42.90;16.17;;;6.30;99.90;;;;;;5021318;28;20116;-71
2022/11/25 10:55:32;;;;;;;31.85;15.57;;;6.30;99.90;;;;;;5012153;28;20041;-70
2022/11/25 10:57:58;;;;;;;39.42;17.38;;;6.40;99.90;;;;;;5035407;28;20033;-70
2022/11/25 11:00:35;;;;;;;34.03;15.00;;;6.40;99.90;;;;;;5026751;28;20034;-71
2022/11/25 11:03:25;;;;;;;30.65;15.63;;;6.40;99.90;;;;;;5026993;28;20033;-70
2022/11/25 11:05:52;;;;;;;36.45;16.83;;;6.50;99.90;;;;;;4996290;28;20101;-70
2022/11/25 11:08:21;;;;;;;39.85;16.80;;;6.50;99.90;;;;;;5014681;28;20022;-70
2022/11/25 11:11:19;;;;;;;44.17;17.95;;;6.50;99.90;;;;;;5015510;28;20366;-70
2022/11/25 11:13:46;;;;;;;44.25;16.95;;;6.60;99.90;;;;;;5040191;23;20020;-69
2022/11/25 11:16:37;;;;;;;36.15;17.75;;;6.60;99.90;;;;;;5035081;28;20033;-69
2022/11/25 11:19:04;;;;;;;40.10;18.65;;;6.60;99.90;;;;;;5034933;28;20017;-69
2022/11/25 11:21:35;;;;;;;31.20;16.15;;;6.70;99.90;;;;;;5016571;28;20037;-69
2022/11/25 11:24:02;;;;;;;42.85;19.05;;;6.70;99.90;;;;;;5034502;28;20496;-69
2022/11/25 11:26:33;;;;;;;41.10;17.50;;;6.70;99.90;;;;;;5033558;28;20432;-69
2022/11/25 11:29:16;;;;;;;46.75;18.38;;;6.80;99.90;;;;;;5014801;28;20024;-69
2022/11/25 11:31:48;;;;;;;41.45;17.60;;;6.80;99.90;;;;;;5022675;28;20021;-68
2022/11/25 11:34:44;;;;;;;34.92;17.88;;;6.80;99.90;;;;;;5020735;28;20029;-69
2022/11/25 11:37:29;;;;;;;43.10;18.58;;;6.70;99.90;;;;;;5032231;28;20388;-69
2022/11/25 11:40:35;;;;;;;37.45;18.17;;;6.80;99.90;;;;;;5034313;28;20041;-69
2022/11/25 11:43:21;;;;;;;35.40;18.50;;;6.80;99.90;;;;;;4973227;28;20109;-69
2022/11/25 11:46:16;;;;;;;33.47;17.20;;;6.80;99.90;;;;;;5013246;28;20034;-69
2022/11/25 11:49:15;;;;;;;33.67;17.67;;;6.90;99.90;;;;;;4991890;28;20068;-69
2022/11/25 11:51:43;;;;;;;30.35;17.55;;;6.90;99.90;;;;;;5034141;28;20053;-69
2022/11/25 11:54:15;;;;;;;42.03;18.67;;;6.90;99.90;;;;;;5033862;28;20033;-69
2022/11/25 11:56:52;;;;;;;37.75;16.63;;;6.90;99.90;;;;;;5033920;28;20025;-69
2022/11/25 11:59:51;;;;;;;39.17;18.08;;;6.90;99.90;;;;;;5032143;28;20030;-69
2022/11/25 12:02:34;;;;;;;38.45;18.27;;;6.90;99.90;;;;;;5013900;28;20036;-69
2022/11/25 12:05:20;;;;;;;39.90;19.17;;;6.90;99.90;;;;;;5016754;28;20040;-69
2022/11/25 12:08:05;;;;;;;41.92;20.52;;;6.90;99.90;;;;;;5033936;28;20021;-69
2022/11/25 12:10:33;;;;;;;42.75;19.73;;;6.90;99.90;;;;;;5034276;28;20024;-69
2022/11/25 12:13:36;;;;;;;51.40;21.00;;;6.90;99.90;;;;;;5019576;28;20118;-69
2022/11/25 12:16:06;;;;;;;44.40;22.23;;;6.90;99.90;;;;;;5011059;28;20121;-69
2022/11/25 12:18:54;;;;;;;40.92;20.85;;;7.00;99.90;;;;;;5028416;28;20481;-69
2022/11/25 12:21:28;;;;;;;44.55;21.30;;;6.90;99.90;;;;;;5033323;28;20025;-69
2022/11/25 12:24:03;;;;;;;47.70;21.30;;;7.00;99.90;;;;;;5033708;28;20428;-69
2022/11/25 12:26:59;;;;;;;49.22;23.40;;;7.00;99.90;;;;;;5033676;28;20423;-69
2022/11/25 12:29:49;;;;;;;43.33;22.92;;;7.10;99.90;;;;;;5033989;28;20025;-69
2022/11/25 12:32:24;;;;;;;58.17;24.02;;;7.10;99.90;;;;;;5033853;28;20021;-69
2022/11/25 12:35:10;;;;;;;51.47;24.27;;;7.10;99.90;;;;;;5037381;28;20018;-69
2022/11/25 12:37:59;;;;;;;48.33;21.33;;;7.10;99.90;;;;;;5037428;28;20036;-69
2022/11/25 12:40:39;;;;;;;47.78;23.60;;;7.10;99.90;;;;;;5029449;28;20117;-68
2022/11/25 12:43:24;;;;;;;45.50;25.33;;;7.20;99.90;;;;;;5035423;28;20026;-69
2022/11/25 12:46:11;;;;;;;56.45;25.02;;;7.20;99.90;;;;;;5037664;28;20025;-69
2022/11/25 12:48:40;;;;;;;59.30;24.05;;;7.10;99.90;;;;;;5023177;28;20385;-69
2022/11/25 12:51:24;;;;;;;57.83;25.30;;;7.20;99.90;;;;;;5017756;28;20107;-70
2022/11/25 12:54:16;;;;;;;54.25;27.08;;;7.10;99.90;;;;;;5017406;28;20030;-69
2022/11/25 12:56:54;;;;;;;64.10;25.83;;;7.10;99.90;;;;;;5016188;28;20401;-69
2022/11/25 12:59:50;;;;;;;60.95;25.85;;;7.10;99.90;;;;;;5028131;28;20025;-69
2022/11/25 13:02:37;;;;;;;56.33;24.83;;;7.10;99.90;;;;;;5036398;28;20398;-69